createdAt,value
2019-02-06T00:00:53.403Z,75.95
2019-02-06T00:02:55.109Z,70.50
2019-02-06T00:04:57.113Z,76.92
2019-02-06T00:06:58.949Z,70.15
2019-02-06T00:09:00.769Z,59.53
2019-02-06T00:11:03.146Z,65.10
2019-02-06T00:13:05.603Z,73.15
2019-02-06T00:15:07.598Z,71.28
2019-02-06T00:17:09.428Z,59.98
2019-02-06T00:19:11.358Z,71.92
2019-02-06T00:21:13.447Z,75.60
2019-02-06T00:23:15.245Z,75.10
2019-02-06T00:25:17.076Z,63.25
2019-02-06T00:27:18.782Z,73.47
2019-02-06T00:29:20.549Z,67.53
2019-02-06T00:31:22.509Z,62.60
2019-02-06T00:33:24.249Z,62.35
2019-02-06T00:35:26.294Z,66.80
2019-02-06T00:37:28.171Z,69.37
2019-02-06T00:39:30.202Z,64.65
2019-02-06T00:41:32.181Z,57.53
2019-02-06T00:43:34.089Z,68.07
2019-02-06T00:45:35.778Z,54.15
2019-02-06T00:47:37.888Z,68.10
2019-02-06T00:49:48.113Z,64.12
2019-02-06T00:51:49.834Z,62.15
2019-02-06T00:53:51.642Z,64.62
2019-02-06T00:55:53.367Z,52.90
2019-02-06T00:57:55.472Z,57.80
2019-02-06T00:59:58.554Z,62.73
2019-02-06T01:02:00.498Z,63.05
2019-02-06T01:04:03.105Z,53.33
2019-02-06T01:06:05.027Z,58.45
2019-02-06T01:08:07.029Z,58.55
2019-02-06T01:10:10.983Z,71.97
2019-02-06T01:12:12.789Z,60.92
2019-02-06T01:14:14.503Z,57.30
2019-02-06T01:16:16.345Z,63.35
2019-02-06T01:18:18.158Z,57.70
2019-02-06T01:20:19.993Z,54.80
2019-02-06T01:22:21.925Z,58.55
2019-02-06T01:24:24.034Z,58.83
2019-02-06T01:26:25.740Z,61.20
2019-02-06T01:28:27.593Z,61.05
2019-02-06T01:30:33.930Z,64.10
2019-02-06T01:32:35.633Z,53.20
2019-02-06T01:34:37.586Z,59.58
2019-02-06T01:36:39.440Z,53.87
2019-02-06T01:38:41.354Z,47.58
2019-02-06T01:40:43.443Z,52.90
2019-02-06T01:42:45.356Z,51.88
2019-02-06T01:44:47.073Z,52.73
2019-02-06T01:46:48.906Z,51.98
2019-02-06T01:48:50.629Z,57.13
2019-02-06T01:50:52.635Z,52.03
2019-02-06T01:52:54.564Z,56.55
2019-02-06T01:54:56.275Z,56.48
2019-02-06T01:56:58.115Z,55.50
2019-02-06T01:59:00.133Z,53.02
2019-02-06T02:01:01.966Z,46.73
2019-02-06T02:03:03.890Z,44.00
2019-02-06T02:05:05.903Z,54.58
2019-02-06T02:07:07.914Z,52.05
2019-02-06T02:09:19.033Z,50.90
2019-02-06T02:11:20.938Z,44.38
2019-02-06T02:13:22.740Z,50.70
2019-02-06T02:15:24.888Z,50.03
2019-02-06T02:17:27.053Z,50.98
2019-02-06T02:19:28.757Z,48.20
2019-02-06T02:21:31.007Z,49.48
2019-02-06T02:23:32.924Z,53.23
2019-02-06T02:25:34.802Z,48.52
2019-02-06T02:27:36.741Z,48.35
2019-02-06T02:29:39.716Z,43.15
2019-02-06T02:31:41.531Z,48.20
2019-02-06T02:33:43.648Z,39.00
2019-02-06T02:35:45.861Z,51.65
2019-02-06T02:37:47.768Z,47.35
2019-02-06T02:39:49.641Z,53.68
2019-02-06T02:41:51.340Z,51.90
2019-02-06T02:43:53.346Z,52.73
2019-02-06T02:45:55.166Z,49.63
2019-02-06T02:47:56.975Z,50.25
2019-02-06T02:49:58.698Z,57.27
2019-02-06T02:52:00.543Z,50.83
2019-02-06T02:54:02.345Z,57.58
2019-02-06T02:56:04.260Z,58.55
2019-02-06T02:58:06.200Z,60.78
2019-02-06T03:00:12.571Z,56.73
2019-02-06T03:02:34.065Z,61.18
2019-02-06T03:04:40.736Z,69.32
2019-02-06T03:06:42.474Z,66.12
2019-02-06T03:08:44.262Z,68.70
2019-02-06T03:10:45.960Z,64.87
2019-02-06T03:15:51.374Z,63.75
2019-02-06T03:17:53.204Z,80.62
2019-02-06T03:19:55.018Z,68.22
2019-02-06T03:21:56.829Z,87.70
2019-02-06T03:23:58.662Z,82.53
2019-02-06T03:26:00.577Z,86.65
2019-02-06T03:28:03.414Z,83.70
2019-02-06T03:30:07.089Z,90.60
2019-02-06T03:32:10.716Z,82.97
2019-02-06T03:34:12.435Z,74.47
2019-02-06T03:36:14.509Z,72.50
2019-02-06T03:38:16.415Z,84.80
2019-02-06T03:40:18.473Z,82.12
2019-02-06T03:42:20.216Z,85.32
2019-02-06T03:44:21.926Z,85.60
2019-02-06T03:46:23.634Z,81.65
2019-02-06T03:48:25.465Z,78.78
2019-02-06T03:50:27.287Z,75.85
2019-02-06T03:52:28.983Z,99.37
2019-02-06T03:54:30.957Z,77.65
2019-02-06T03:56:32.856Z,78.97
2019-02-06T03:58:34.570Z,85.67
2019-02-06T04:00:36.464Z,74.27
2019-02-06T04:02:38.274Z,84.07
2019-02-06T04:04:39.996Z,87.70
2019-02-06T04:06:53.379Z,87.60
2019-02-06T04:08:45.739Z,92.95
2019-02-06T04:10:47.489Z,82.78
2019-02-06T04:12:49.313Z,73.67
2019-02-06T04:14:51.026Z,84.22
2019-02-06T04:16:53.116Z,69.10
2019-02-06T04:18:54.837Z,78.17
2019-02-06T04:20:56.671Z,76.70
2019-02-06T04:22:58.473Z,75.78
2019-02-06T04:25:00.211Z,73.05
2019-02-06T04:27:01.997Z,92.65
2019-02-06T04:29:03.790Z,80.30
2019-02-06T04:31:05.590Z,68.67
2019-02-06T04:33:07.883Z,71.87
2019-02-06T04:35:10.460Z,78.57
2019-02-06T04:37:12.261Z,83.05
2019-02-06T04:39:14.002Z,81.25
2019-02-06T04:41:16.017Z,81.28
2019-02-06T04:43:17.725Z,70.03
2019-02-06T04:45:19.444Z,74.92
2019-02-06T04:47:21.158Z,77.17
2019-02-06T04:49:22.856Z,74.45
2019-02-06T04:51:24.619Z,84.50
2019-02-06T04:53:28.142Z,71.97
2019-02-06T04:55:30.025Z,78.92
2019-02-06T04:57:31.721Z,81.80
2019-02-06T04:59:33.439Z,81.72
2019-02-06T05:01:35.262Z,87.00
2019-02-06T05:03:36.982Z,70.28
2019-02-06T05:05:38.685Z,80.50
2019-02-06T05:07:42.156Z,75.28
2019-02-06T05:09:44.183Z,71.17
2019-02-06T05:11:45.889Z,80.40
2019-02-06T05:13:47.758Z,68.17
2019-02-06T05:15:49.750Z,69.82
2019-02-06T05:17:51.465Z,75.15
2019-02-06T05:19:53.544Z,72.75
2019-02-06T05:21:55.249Z,78.90
2019-02-06T05:23:57.309Z,76.20
2019-02-06T05:25:59.138Z,70.32
2019-02-06T05:28:00.953Z,79.07
2019-02-06T05:30:04.646Z,77.75
2019-02-06T05:32:06.475Z,82.02
2019-02-06T05:34:08.339Z,74.58
2019-02-06T05:36:10.153Z,82.33
2019-02-06T05:38:11.953Z,67.95
2019-02-06T05:40:13.869Z,80.42
2019-02-06T05:42:16.098Z,80.75
2019-02-06T05:44:17.865Z,81.97
2019-02-06T05:46:19.598Z,77.87
2019-02-06T05:48:21.423Z,81.78
2019-02-06T05:50:23.667Z,79.97
2019-02-06T05:52:25.585Z,76.30
2019-02-06T05:54:27.486Z,72.55
2019-02-06T05:56:29.193Z,79.58
2019-02-06T05:58:31.117Z,70.37
2019-02-06T06:00:44.718Z,80.77
2019-02-06T06:02:46.485Z,79.42
2019-02-06T06:04:50.462Z,70.70
2019-02-06T06:06:52.180Z,74.15
2019-02-06T06:08:54.006Z,73.15
2019-02-06T06:10:55.734Z,68.97
2019-02-06T06:12:57.561Z,71.22
2019-02-06T06:14:59.275Z,62.85
2019-02-06T06:17:01.010Z,72.65
2019-02-06T06:19:03.431Z,76.72
2019-02-06T06:21:05.373Z,64.97
2019-02-06T06:23:07.082Z,65.55
2019-02-06T06:25:09.328Z,64.77
2019-02-06T06:27:11.040Z,66.17
2019-02-06T06:29:12.845Z,70.50
2019-02-06T06:31:14.918Z,60.05
2019-02-06T06:33:16.677Z,78.97
2019-02-06T06:35:18.614Z,72.27
2019-02-06T06:37:20.550Z,71.15
2019-02-06T06:39:25.509Z,65.57
2019-02-06T06:41:27.509Z,68.62
2019-02-06T06:43:29.416Z,69.65
2019-02-06T06:45:31.421Z,73.25
2019-02-06T06:47:33.228Z,74.67
2019-02-06T06:49:34.960Z,57.48
2019-02-06T06:51:36.763Z,69.80
2019-02-06T06:53:38.477Z,72.80
2019-02-06T06:55:40.203Z,65.87
2019-02-06T06:57:42.382Z,69.40
2019-02-06T06:59:44.198Z,60.45
2019-02-06T07:01:46.033Z,65.37
2019-02-06T07:03:47.769Z,68.20
2019-02-06T07:05:49.782Z,67.25
2019-02-06T07:07:53.056Z,63.55
2019-02-06T07:09:55.576Z,60.15
2019-02-06T07:11:57.362Z,66.45
2019-02-06T07:13:59.098Z,65.28
2019-02-06T07:16:01.097Z,60.63
2019-02-06T07:18:03.795Z,62.20
2019-02-06T07:20:07.093Z,61.75
2019-02-06T07:22:08.919Z,59.50
2019-02-06T07:24:10.769Z,54.80
2019-02-06T07:26:12.540Z,51.83
2019-02-06T07:28:14.352Z,62.53
2019-02-06T07:30:31.404Z,65.62
2019-02-06T07:32:36.148Z,56.58
2019-02-06T07:34:36.770Z,55.03
2019-02-06T07:36:38.605Z,59.73
2019-02-06T07:38:40.881Z,58.60
2019-02-06T07:40:42.582Z,55.60
2019-02-06T07:42:44.473Z,60.80
2019-02-06T07:44:46.339Z,58.00
2019-02-06T07:46:52.189Z,55.23
2019-02-06T07:48:54.189Z,54.05
2019-02-06T07:50:56.502Z,52.50
2019-02-06T07:52:58.498Z,55.88
2019-02-06T07:55:00.433Z,57.62
2019-02-06T07:57:06.322Z,55.15
2019-02-06T07:59:10.521Z,56.40
2019-02-06T08:01:12.457Z,48.75
2019-02-06T08:03:14.488Z,41.88
2019-02-06T08:05:17.242Z,57.35
2019-02-06T08:07:20.071Z,47.03
2019-02-06T08:09:22.156Z,45.45
2019-02-06T08:11:24.394Z,50.30
2019-02-06T08:13:26.407Z,42.67
2019-02-06T08:15:28.413Z,47.10
2019-02-06T08:17:31.029Z,51.18
2019-02-06T08:19:32.735Z,47.23
2019-02-06T08:21:34.434Z,46.08
2019-02-06T08:23:36.580Z,43.30
2019-02-06T08:25:38.492Z,49.90
2019-02-06T08:27:40.955Z,41.83
2019-02-06T08:29:42.825Z,43.70
2019-02-06T08:31:54.138Z,40.92
2019-02-06T08:33:56.133Z,47.98
2019-02-06T08:35:57.881Z,43.75
2019-02-06T08:38:08.233Z,43.40
2019-02-06T08:40:10.279Z,42.38
2019-02-06T08:42:12.257Z,38.85
2019-02-06T08:44:14.417Z,39.80
2019-02-06T08:46:34.246Z,38.08
2019-02-06T08:48:35.963Z,38.30
2019-02-06T08:50:37.775Z,42.40
2019-02-06T08:52:42.705Z,36.10
2019-02-06T08:54:44.642Z,38.60
2019-02-06T08:56:46.557Z,36.08
2019-02-06T08:58:48.257Z,37.38
2019-02-06T09:00:50.073Z,34.80
2019-02-06T09:02:52.025Z,35.23
2019-02-06T09:04:58.417Z,32.88
2019-02-06T09:07:03.298Z,30.32
2019-02-06T09:09:08.781Z,34.48
2019-02-06T09:11:11.771Z,32.53
2019-02-06T09:13:13.816Z,36.65
2019-02-06T09:15:15.983Z,37.58
2019-02-06T09:17:17.887Z,30.08
2019-02-06T09:19:19.761Z,34.03
2019-02-06T09:21:21.569Z,36.60
2019-02-06T09:23:23.708Z,32.58
2019-02-06T09:25:25.654Z,30.15
2019-02-06T09:27:27.361Z,30.82
2019-02-06T09:29:29.420Z,31.57
2019-02-06T09:31:31.449Z,35.75
2019-02-06T09:33:33.159Z,30.68
2019-02-06T09:35:35.038Z,27.87
2019-02-06T09:37:36.946Z,29.67
2019-02-06T09:39:41.349Z,31.15
2019-02-06T09:41:43.361Z,31.20
2019-02-06T09:43:45.177Z,30.50
2019-02-06T09:45:46.881Z,30.82
2019-02-06T09:47:49.361Z,31.37
2019-02-06T09:49:51.194Z,27.22
2019-02-06T09:51:52.902Z,31.12
2019-02-06T09:54:06.953Z,28.45
2019-02-06T09:56:08.921Z,27.50
2019-02-06T09:58:10.845Z,29.85
2019-02-06T10:00:16.304Z,28.65
2019-02-06T10:02:18.097Z,27.00
2019-02-06T10:04:19.826Z,29.57
2019-02-06T10:06:21.987Z,24.67
2019-02-06T10:08:24.096Z,30.02
2019-02-06T10:10:26.181Z,25.60
2019-02-06T10:12:27.937Z,30.17
2019-02-06T10:14:29.750Z,28.05
2019-02-06T10:16:31.445Z,23.80
2019-02-06T10:18:33.179Z,25.30
2019-02-06T10:20:37.660Z,24.98
2019-02-06T10:22:39.593Z,24.98
2019-02-06T10:24:41.458Z,22.35
2019-02-06T10:26:43.274Z,23.05
2019-02-06T10:28:45.197Z,24.37
2019-02-06T10:30:48.872Z,24.45
2019-02-06T10:32:50.809Z,22.22
2019-02-06T10:34:52.973Z,26.00
2019-02-06T10:36:54.700Z,22.27
2019-02-06T10:38:56.601Z,26.07
2019-02-06T10:40:58.525Z,23.80
2019-02-06T10:43:00.457Z,21.93
2019-02-06T10:45:03.259Z,19.02
2019-02-06T10:47:05.161Z,20.05
2019-02-06T10:49:07.153Z,20.82
2019-02-06T10:51:15.194Z,22.40
2019-02-06T10:53:17.441Z,17.92
2019-02-06T10:55:19.397Z,22.65
2019-02-06T10:57:23.263Z,20.80
2019-02-06T10:59:24.996Z,17.87
2019-02-06T11:01:27.049Z,19.15
2019-02-06T11:03:28.870Z,20.65
2019-02-06T11:05:30.829Z,23.07
2019-02-06T11:07:32.835Z,25.72
2019-02-06T11:09:45.770Z,21.75
2019-02-06T11:11:38.481Z,20.80
2019-02-06T11:13:40.476Z,23.60
2019-02-06T11:15:42.213Z,24.60
2019-02-06T11:17:44.143Z,20.23
2019-02-06T11:19:46.274Z,20.02
2019-02-06T11:21:48.008Z,22.62
2019-02-06T11:23:49.845Z,25.45
2019-02-06T11:25:51.720Z,22.85
2019-02-06T11:27:53.638Z,17.98
2019-02-06T11:29:55.393Z,22.82
2019-02-06T11:31:57.145Z,23.27
2019-02-06T11:33:58.986Z,23.77
2019-02-06T11:38:31.148Z,23.42
2019-02-06T11:40:33.161Z,26.25
2019-02-06T11:42:34.868Z,27.17
2019-02-06T11:44:36.631Z,23.65
2019-02-06T11:46:38.324Z,24.60
2019-02-06T11:48:40.137Z,24.05
2019-02-06T11:53:27.484Z,29.55
2019-02-06T11:55:29.610Z,24.70
2019-02-06T11:57:31.558Z,29.05
2019-02-06T11:59:33.262Z,28.57
2019-02-06T12:01:39.487Z,26.05
2019-02-06T12:03:41.641Z,25.88
2019-02-06T12:05:44.331Z,26.42
2019-02-06T12:07:46.451Z,26.77
2019-02-06T12:09:50.078Z,26.00
2019-02-06T12:11:52.043Z,26.20
2019-02-06T12:13:53.777Z,32.17
2019-02-06T12:15:55.610Z,32.70
2019-02-06T12:17:57.397Z,29.05
2019-02-06T12:20:03.899Z,30.60
2019-02-06T12:22:05.789Z,29.80
2019-02-06T12:24:07.802Z,30.50
2019-02-06T12:26:09.774Z,33.92
2019-02-06T12:28:17.718Z,29.82
2019-02-06T12:30:45.882Z,31.93
2019-02-06T12:32:52.368Z,34.03
2019-02-06T12:34:53.090Z,30.90
2019-02-06T12:36:55.101Z,28.38
2019-02-06T12:39:00.289Z,30.08
2019-02-06T12:41:02.509Z,28.62
2019-02-06T12:43:05.029Z,34.75
2019-02-06T12:45:28.374Z,33.73
2019-02-06T12:47:30.391Z,30.62
2019-02-06T12:49:32.208Z,30.45
2019-02-06T12:51:34.285Z,28.15
2019-02-06T12:53:36.078Z,31.20
2019-02-06T12:55:38.161Z,23.77
2019-02-06T12:57:40.123Z,31.87
2019-02-06T12:59:50.600Z,24.63
2019-02-06T13:01:55.525Z,29.63
2019-02-06T13:04:04.656Z,30.30
2019-02-06T13:06:07.722Z,30.77
2019-02-06T13:08:19.998Z,27.10
2019-02-06T13:10:32.871Z,28.57
2019-02-06T13:12:27.392Z,34.60
2019-02-06T13:14:29.365Z,25.35
2019-02-06T13:16:31.104Z,29.67
2019-02-06T13:18:33.321Z,29.55
2019-02-06T13:20:35.380Z,30.23
2019-02-06T13:22:37.289Z,26.17
2019-02-06T13:24:39.017Z,31.65
2019-02-06T13:26:44.041Z,29.10
2019-02-06T13:28:44.741Z,33.18
2019-02-06T13:30:46.665Z,32.63
2019-02-06T13:32:48.789Z,32.38
2019-02-06T13:34:57.410Z,32.45
2019-02-06T13:36:59.499Z,29.18
2019-02-06T13:39:01.405Z,29.70
2019-02-06T13:41:04.786Z,32.53
2019-02-06T13:43:14.409Z,33.98
2019-02-06T13:45:21.362Z,33.05
2019-02-06T13:47:42.231Z,26.85
2019-02-06T13:49:46.876Z,35.28
2019-02-06T13:51:47.824Z,28.52
2019-02-06T13:53:49.769Z,35.98
2019-02-06T13:55:51.701Z,31.93
2019-02-06T13:57:53.673Z,37.05
2019-02-06T13:59:55.778Z,32.17
2019-02-06T14:01:57.541Z,35.65
2019-02-06T14:03:59.484Z,38.92
2019-02-06T14:06:01.803Z,32.58
2019-02-06T14:08:09.132Z,28.57
2019-02-06T14:10:12.655Z,33.90
2019-02-06T14:12:14.400Z,37.25
2019-02-06T14:14:16.217Z,35.52
2019-02-06T14:16:18.101Z,36.40
2019-02-06T14:18:20.422Z,35.48
2019-02-06T14:20:22.578Z,32.60
2019-02-06T14:22:26.003Z,36.70
2019-02-06T14:24:54.292Z,39.53
2019-02-06T14:27:38.698Z,38.67
2019-02-06T14:30:34.366Z,30.02
2019-02-06T14:33:01.847Z,34.25
2019-02-06T14:35:49.768Z,32.80
2019-02-06T14:38:25.124Z,35.13
2019-02-06T14:40:53.477Z,31.87
2019-02-06T14:43:36.828Z,37.17
2019-02-06T15:00:27.138Z,37.65
2019-02-06T15:03:20.060Z,32.98
2019-02-06T15:06:01.522Z,35.15
2019-02-06T15:09:04.031Z,37.60
2019-02-06T15:11:56.910Z,33.38
2019-02-06T15:14:39.460Z,30.40
2019-02-06T15:17:34.449Z,33.53
2019-02-06T15:19:55.265Z,35.40
2019-02-06T15:22:24.733Z,30.65
2019-02-06T15:24:51.594Z,32.45
2019-02-06T15:27:30.003Z,41.10
2019-02-06T15:30:19.021Z,34.20
2019-02-06T15:32:55.533Z,38.40
2019-02-06T15:35:34.388Z,38.63
2019-02-06T15:38:14.033Z,39.03
2019-02-06T15:40:44.510Z,37.48
2019-02-06T15:43:15.453Z,35.58
2019-02-06T15:45:48.142Z,41.92
2019-02-06T15:48:12.054Z,43.50
2019-02-06T15:51:16.865Z,32.42
2019-02-06T15:54:06.858Z,33.38
2019-02-06T15:56:56.509Z,34.33
2019-02-06T15:59:40.089Z,38.40
2019-02-06T16:02:30.024Z,40.60
2019-02-06T16:08:20.430Z,33.45
2019-02-06T16:10:48.002Z,36.98
2019-02-06T16:13:14.949Z,34.00
2019-02-06T16:15:32.681Z,37.15
2019-02-06T16:17:53.208Z,40.15
2019-02-06T16:20:42.855Z,39.40
2019-02-06T16:23:22.909Z,37.98
2019-02-06T16:25:50.826Z,42.65
2019-02-06T16:28:43.647Z,37.15
2019-02-06T16:31:21.500Z,43.80
2019-02-06T16:33:59.297Z,42.33
2019-02-06T16:36:55.776Z,44.70
2019-02-06T16:39:42.158Z,45.40
2019-02-06T16:42:08.527Z,46.15
2019-02-06T16:44:57.642Z,40.80
2019-02-06T16:47:14.423Z,40.67
2019-02-06T16:49:42.933Z,42.78
2019-02-06T16:52:23.935Z,48.55
2019-02-06T16:54:50.701Z,48.63
2019-02-06T16:57:30.134Z,46.23
2019-02-06T17:00:21.619Z,47.83
2019-02-06T17:03:05.852Z,47.48
2019-02-06T17:05:31.087Z,44.58
2019-02-06T17:07:52.941Z,44.45
2019-02-06T17:10:37.267Z,41.35
2019-02-06T17:13:18.377Z,47.93
2019-02-06T17:15:46.734Z,44.18
2019-02-06T17:18:26.524Z,52.27
2019-02-06T17:20:57.838Z,50.00
2019-02-06T17:23:34.939Z,47.27
2019-02-06T17:26:20.524Z,46.42
2019-02-06T17:29:03.259Z,45.50
2019-02-06T17:31:49.282Z,47.38
2019-02-06T17:34:47.072Z,48.02
2019-02-06T17:37:24.926Z,48.75
2019-02-06T17:40:16.781Z,50.75
2019-02-06T17:42:50.119Z,56.18
2019-02-06T17:45:34.738Z,53.80
2019-02-06T17:48:00.994Z,53.87
2019-02-06T17:50:33.551Z,55.95
2019-02-06T17:53:12.073Z,54.63
2019-02-06T17:55:22.259Z,55.48
2019-02-06T17:57:24.096Z,60.30
2019-02-06T17:59:25.811Z,58.87
2019-02-06T18:01:36.941Z,53.42
2019-02-06T18:03:45.542Z,58.38
2019-02-06T18:05:47.813Z,62.10
2019-02-06T18:07:49.711Z,62.75
2019-02-06T18:09:51.850Z,55.10
2019-02-06T18:11:53.669Z,66.90
2019-02-06T18:13:56.658Z,61.13
2019-02-06T18:15:59.027Z,69.60
2019-02-06T18:18:03.191Z,68.85
2019-02-06T18:20:34.321Z,64.05
2019-02-06T18:22:37.676Z,77.20
2019-02-06T18:24:46.445Z,68.20
2019-02-06T18:26:56.660Z,64.15
2019-02-06T18:28:58.383Z,66.85
2019-02-06T18:31:01.633Z,77.08
2019-02-06T18:33:04.347Z,69.17
2019-02-06T18:35:06.833Z,69.72
2019-02-06T18:37:09.399Z,66.15
2019-02-06T18:39:12.907Z,71.53
2019-02-06T18:41:14.818Z,72.05
2019-02-06T18:43:16.745Z,67.25
2019-02-06T18:45:22.029Z,68.65
2019-02-06T18:47:24.124Z,81.75
2019-02-06T18:49:26.033Z,71.22
2019-02-06T18:51:27.853Z,72.53
2019-02-06T18:53:29.758Z,75.87
2019-02-06T18:55:31.577Z,73.92
2019-02-06T18:57:41.247Z,80.30
2019-02-06T18:59:43.494Z,75.20
2019-02-06T19:01:45.479Z,80.87
2019-02-06T19:03:47.531Z,79.42
2019-02-06T19:05:56.644Z,78.57
2019-02-06T19:07:58.578Z,73.70
2019-02-06T19:10:00.588Z,78.87
2019-02-06T19:12:03.035Z,70.50
2019-02-06T19:14:05.667Z,79.12
2019-02-06T19:16:07.670Z,74.82
2019-02-06T19:18:09.954Z,70.57
2019-02-06T19:20:12.221Z,67.55
2019-02-06T19:22:14.024Z,79.45
2019-02-06T19:24:17.801Z,67.17
2019-02-06T19:26:19.517Z,71.28
2019-02-06T19:28:21.574Z,66.92
2019-02-06T19:30:28.769Z,68.72
2019-02-06T19:32:30.909Z,73.65
2019-02-06T19:34:32.772Z,73.52
2019-02-06T19:36:36.685Z,74.03
2019-02-06T19:38:38.581Z,67.40
2019-02-06T19:40:41.691Z,70.72
2019-02-06T19:42:43.741Z,66.35
2019-02-06T19:44:45.682Z,68.52
2019-02-06T19:46:47.612Z,68.67
2019-02-06T19:48:49.442Z,77.50
2019-02-06T19:50:52.782Z,68.55
2019-02-06T19:52:57.325Z,64.35
2019-02-06T19:54:59.246Z,64.60
2019-02-06T19:57:01.541Z,65.87
2019-02-06T19:59:03.766Z,67.03
2019-02-06T20:01:05.918Z,64.30
2019-02-06T20:03:08.365Z,66.30
2019-02-06T20:05:12.459Z,60.23
2019-02-06T20:07:14.571Z,71.65
2019-02-06T20:09:16.788Z,66.25
2019-02-06T20:11:18.909Z,67.70
2019-02-06T20:13:20.819Z,67.50
2019-02-06T20:15:23.226Z,67.65
2019-02-06T20:17:24.969Z,72.87
2019-02-06T20:19:30.945Z,73.57
2019-02-06T20:21:32.787Z,69.47
2019-02-06T20:23:34.820Z,65.60
2019-02-06T20:25:45.336Z,63.50
2019-02-06T20:27:51.899Z,72.53
2019-02-06T20:29:55.081Z,76.15
2019-02-06T20:31:56.821Z,78.15
2019-02-06T20:33:59.276Z,75.32
2019-02-06T20:36:01.151Z,79.72
2019-02-06T20:38:03.300Z,81.20
2019-02-06T20:40:09.287Z,69.05
2019-02-06T20:42:11.510Z,72.47
2019-02-06T20:44:13.370Z,84.90
2019-02-06T20:46:15.322Z,76.80
2019-02-06T20:48:24.630Z,84.55
2019-02-06T20:50:27.549Z,80.30
2019-02-06T20:52:41.252Z,84.35
2019-02-06T20:54:43.205Z,75.22
2019-02-06T20:56:47.542Z,82.92
2019-02-06T20:59:11.754Z,83.30
2019-02-06T21:01:13.501Z,89.15
2019-02-06T21:03:15.581Z,84.20
2019-02-06T21:05:17.958Z,90.50
2019-02-06T21:07:19.678Z,85.15
2019-02-06T21:09:29.094Z,88.62
2019-02-06T21:11:30.812Z,81.57
2019-02-06T21:13:33.913Z,77.92
2019-02-06T21:15:36.535Z,88.58
2019-02-06T21:17:38.370Z,78.17
2019-02-06T21:19:40.250Z,78.05
2019-02-06T21:21:42.196Z,95.55
2019-02-06T21:23:44.513Z,78.60
2019-02-06T21:25:52.172Z,85.57
2019-02-06T21:27:53.876Z,88.80
2019-02-06T21:29:55.784Z,85.75
2019-02-06T21:31:57.693Z,93.85
2019-02-06T21:33:59.402Z,93.17
2019-02-06T21:36:01.130Z,84.67
2019-02-06T21:38:03.162Z,94.58
2019-02-06T21:40:13.923Z,89.13
2019-02-06T21:42:15.628Z,91.12
2019-02-06T21:44:23.409Z,92.33
2019-02-06T21:46:25.123Z,95.45
2019-02-06T21:48:26.867Z,81.63
2019-02-06T21:50:34.777Z,88.17
2019-02-06T21:52:36.829Z,96.15
2019-02-06T21:54:38.548Z,96.95
2019-02-06T21:56:40.356Z,95.62
2019-02-06T21:58:42.169Z,94.77
2019-02-06T22:00:50.242Z,102.50
2019-02-06T22:02:52.390Z,97.40
2019-02-06T22:04:54.097Z,103.58
2019-02-06T22:06:55.813Z,110.70
2019-02-06T22:08:57.664Z,91.60
2019-02-06T22:10:59.607Z,90.57
2019-02-06T22:13:01.514Z,99.90
2019-02-06T22:15:06.411Z,104.70
2019-02-06T22:17:08.231Z,95.17
2019-02-06T22:19:10.140Z,96.02
2019-02-06T22:21:12.315Z,104.15
2019-02-06T22:23:14.045Z,111.12
2019-02-06T22:25:15.965Z,102.12
2019-02-06T22:27:27.041Z,111.37
2019-02-06T22:29:31.465Z,109.90
2019-02-06T22:31:33.697Z,112.60
2019-02-06T22:33:35.419Z,112.90
2019-02-06T22:35:37.182Z,106.58
2019-02-06T22:37:38.979Z,104.10
2019-02-06T22:39:40.693Z,105.27
2019-02-06T22:41:42.722Z,116.53
2019-02-06T22:43:44.434Z,118.60
2019-02-06T22:45:46.257Z,105.07
2019-02-06T22:47:48.137Z,105.78
2019-02-06T22:49:50.355Z,124.27
2019-02-06T22:51:52.073Z,117.37
2019-02-06T22:53:53.830Z,103.58
2019-02-06T22:55:55.658Z,103.70
2019-02-06T22:57:57.567Z,113.65
2019-02-06T22:59:59.477Z,101.47
2019-02-06T23:02:01.613Z,133.90
2019-02-06T23:04:04.242Z,121.77
2019-02-06T23:06:07.622Z,118.87
2019-02-06T23:08:09.537Z,137.32
2019-02-06T23:10:11.741Z,124.40
2019-02-06T23:12:13.469Z,124.33
2019-02-06T23:14:17.422Z,123.02
2019-02-06T23:16:19.226Z,134.27
2019-02-06T23:18:21.128Z,123.75
2019-02-06T23:20:23.078Z,114.80
2019-02-06T23:22:25.010Z,115.55
2019-02-06T23:24:29.839Z,122.28
2019-02-06T23:26:31.560Z,125.40
2019-02-06T23:28:33.281Z,123.72
2019-02-06T23:30:35.206Z,117.45
2019-02-06T23:32:37.200Z,131.35
2019-02-06T23:34:39.292Z,122.60
2019-02-06T23:36:41.190Z,129.30
2019-02-06T23:38:43.018Z,118.57
2019-02-06T23:40:44.841Z,146.77
2019-02-06T23:42:46.555Z,135.52
2019-02-06T23:44:48.281Z,133.90
2019-02-06T23:46:50.105Z,120.65
2019-02-06T23:48:51.815Z,131.85
2019-02-06T23:50:53.676Z,138.18
2019-02-06T23:52:55.475Z,138.92
2019-02-06T23:54:57.183Z,143.78
2019-02-06T23:56:59.037Z,138.52
2019-02-06T23:59:00.946Z,133.05
